Soaring Guidance
Issued by NWS Reno, NV

Home | Current Version | Previous Version | Text Only | Print | Product List | Glossary On
Versions: 1 2 3 4 5 6 7 8 9 10 11 12 13 14
000
UXUS97 KREV 261335
SRGREV

SOARING FORECAST
NATIONAL WEATHER SERVICE - RENO NV
700 AM PDT WED APR 26 2017

THIS SOARING FORECAST IS FOR THE EASTERN SIERRA AND WESTERN NEVADA
WITH SPECIFIC INDICES FOR THE GREATER RENO AREA.

THIS FORECAST IS PREPARED DAILY BY 700 AM AND IS NOT UPDATED.

FOR CURRENT FLIGHT CONDITIONS...FORECASTS...AND ADVISORIES...ACCESS
YOUR LOCAL BRIEFING OUTLET OR FLIGHT SERVICE STATION.

*******************************************************************
FORECASTED LOCAL INDICES FOR RENO:        TODAY     YESTERDAY
FORECASTED MAX TEMP AT RENO (DEG F).....     67          66
FORECASTED TRIGGER TEMPERATURE (DEG F)..     53          52
   EXCEEDED YESTERDAY BY 1155 AM PDT
FORECASTED MAXIMUM ALTITUDE (FT MSL)....  11800       12500
FORECASTED SOARING INDEX (FPM)..........    444         615
FORECASTED K-INDEX.........VALID 18Z....     29           7
FORECASTED K-INDEX.........VALID 00Z....     23          27
FORECASTED LIFTED INDEX....VALID 18Z....      4          10
FORECASTED LIFTED INDEX....VALID 00Z....      7           5

AFTERNOON WINDS ALOFT FORECAST
MSL (FT) WIND/TEMP
9000  3038/+01
10000 3038/+00
12000 3138/-03
14000 3046/-06
16000 3056/-09
18000 3084/-12
24000 3180/-24
30000 3099/-41
34000 8102/-53
39000 3069/-60

SLIDE MOUNTAIN DATA:

* SLIDE MOUNTAIN WIND DIRECTION BROKEN...LIKELY WSW DIRECTION.*

     DATE       TIME     TEMP  DEWPT   RH         WIND (MPH)
                        (F)   (F)           | DIR  SPEED GUST
2017-04-26    05:20      30    30    100    |  M*   55   70
2017-04-26    05:00      30    30    100    |  M*   51   66
2017-04-26    04:50      30    30    100    |  M*   48   62
2017-04-26    04:30      30    30    100    |  M*   48   68

RENO TAF FORECAST:
KRNO 261129Z 2612/2712 32011KT P6SM SCT035 BKN070
     FM261600 29014G28KT P6SM SCT035 BKN070
     FM261900 27022G35KT P6SM SCT050 BKN100
     FM270200 30012G24KT P6SM SCT050 BKN100
     FM270600 34010KT P6SM SCT100 BKN200

CARSON CITY TAF FORECAST:
KCXP 261129Z 2612/2712 19006KT P6SM SCT040 BKN060
     FM261600 26012G24KT P6SM SCT030 BKN060
     FM262000 26020G32KT P6SM SCT040 BKN080
     FM270200 29011G20KT P6SM SCT040 BKN090
     FM270500 27007KT P6SM SCT100 BKN200

OUTLOOK FOR THE RENO-CARSON CITY-MINDEN AREA:
.THURSDAY...PARTLY CLOUDY. HIGHS 59 TO 64. WEST WINDS 10 TO
15 MPH.

SUNRISE AND SUNSET
APRIL 26 2017.........SUNRISE   606 AM PDT   SUNSET   748 PM PDT
APRIL 27 2017.........SUNRISE   605 AM PDT   SUNSET   749 PM PDT


USA.gov is the U.S. government's official web portal to all federal, state and local government web resources and services.